Pagina principale
METAR-TAF:

METAR-TAF

Aeroporti :

Anchorage, Alaska, Stati Uniti

latitudine: 61-11N, longitudine: 149-58W, altezza: 22 m

Osservazione

Il bollettino è stato emesso 51 minuti fa, alle 01:53 UTC
Vento 4 kt da direzioni variabili
Temperature 15°C
Umidità 44%
Pressione 1001 hPa
Visibilità: 16.1 km
Nuvoloso ad un'altezza di 4800 ft

METAR: PALH 260153Z AUTO VRB04KT 10SM BKN048 15/03 A2957 RMK AO2 RAB0056E45 SLP013 T01500033 TSNO

Ora: 18:44 (02:44 UTC)


TAF: mancante

Osservazioni e previsioni meteorologiche di più di 4000 aeroporti (messaggi METAR e TAF).

Le stazioni disponibili sono rappresentate dai dischi gialli e rossi sulla carta.

Puntare il mouse per vedere il nome della stazione.

Clicca sopra per visualizzare le osservazioni e previsioni meteorologiche.

Per cambiare la mappa : fare clic sui pulsanti verdi con una croce nera per ingrandire, il pulsante verde con un trattino per diminuire, o sulla freccia verde per le mappe adiacenti.


METAR-TAF: